createdAt,value
2022-11-09T00:00:32.920Z,99.66
2022-11-09T00:02:50.194Z,99.75
2022-11-09T00:05:07.221Z,99.57
2022-11-09T00:07:24.552Z,100.00
2022-11-09T00:09:41.931Z,99.55
2022-11-09T00:11:59.335Z,99.92
2022-11-09T00:14:17.614Z,99.39
2022-11-09T00:16:34.970Z,99.52
2022-11-09T00:18:51.986Z,99.90
2022-11-09T00:21:09.043Z,99.80
2022-11-09T00:23:26.085Z,100.00
2022-11-09T00:25:43.098Z,100.00
2022-11-09T00:28:00.191Z,100.00
2022-11-09T00:30:17.386Z,100.00
2022-11-09T00:32:34.873Z,100.00
2022-11-09T00:34:51.899Z,100.00
2022-11-09T00:37:09.286Z,100.00
2022-11-09T00:39:26.603Z,100.00
2022-11-09T00:41:43.978Z,100.00
2022-11-09T00:44:01.313Z,100.00
2022-11-09T00:46:18.766Z,100.00
2022-11-09T00:48:36.017Z,100.00
2022-11-09T00:50:52.993Z,100.00
2022-11-09T00:53:10.051Z,100.00
2022-11-09T00:55:28.227Z,100.00
2022-11-09T00:57:45.796Z,100.00
2022-11-09T01:00:02.963Z,100.00
2022-11-09T01:02:20.470Z,100.00
2022-11-09T01:04:38.514Z,100.00
2022-11-09T01:06:56.678Z,100.00
2022-11-09T01:09:13.886Z,100.00
2022-11-09T01:11:32.282Z,100.00
2022-11-09T01:13:51.786Z,100.00
2022-11-09T01:16:11.957Z,100.00
2022-11-09T01:18:29.031Z,100.00
2022-11-09T01:20:46.490Z,100.00
2022-11-09T01:23:03.491Z,100.00
2022-11-09T01:25:20.517Z,100.00
2022-11-09T01:27:38.858Z,100.00
2022-11-09T01:29:55.930Z,100.00
2022-11-09T01:32:13.170Z,100.00
2022-11-09T01:34:30.269Z,100.00
2022-11-09T01:36:47.553Z,100.00
2022-11-09T01:39:04.797Z,100.00
2022-11-09T01:41:21.883Z,100.00
2022-11-09T01:43:38.865Z,100.00
2022-11-09T01:45:56.167Z,100.00
2022-11-09T01:48:13.422Z,100.00
2022-11-09T01:50:30.618Z,100.00
2022-11-09T01:52:47.575Z,100.00
2022-11-09T01:55:04.906Z,100.00
2022-11-09T01:57:21.924Z,100.00
2022-11-09T01:59:38.940Z,100.00
2022-11-09T02:01:55.873Z,100.00
2022-11-09T02:04:13.111Z,100.00
2022-11-09T02:06:30.444Z,100.00
2022-11-09T02:08:47.508Z,100.00
2022-11-09T02:11:04.466Z,100.00
2022-11-09T02:13:22.020Z,100.00
2022-11-09T02:15:44.434Z,100.00
2022-11-09T02:18:03.056Z,100.00
2022-11-09T02:20:21.421Z,100.00
2022-11-09T02:22:39.651Z,100.00
2022-11-09T02:24:56.768Z,100.00
2022-11-09T02:27:14.907Z,100.00
2022-11-09T02:29:32.239Z,100.00
2022-11-09T02:31:49.309Z,100.00
2022-11-09T02:34:06.233Z,100.00
2022-11-09T02:36:23.192Z,100.00
2022-11-09T02:38:40.494Z,100.00
2022-11-09T02:40:58.003Z,100.00
2022-11-09T02:43:15.082Z,100.00
2022-11-09T02:45:32.321Z,100.00
2022-11-09T02:47:50.307Z,100.00
2022-11-09T02:50:07.343Z,100.00
2022-11-09T02:52:24.625Z,100.00
2022-11-09T02:54:41.585Z,100.00
2022-11-09T02:56:58.563Z,100.00
2022-11-09T02:59:16.485Z,100.00
2022-11-09T03:01:35.060Z,100.00
2022-11-09T03:03:52.083Z,100.00
2022-11-09T03:06:09.214Z,100.00
2022-11-09T03:08:27.258Z,100.00
2022-11-09T03:10:44.301Z,100.00
2022-11-09T03:13:01.566Z,100.00
2022-11-09T03:15:18.637Z,100.00
2022-11-09T03:17:36.576Z,100.00
2022-11-09T03:19:53.877Z,100.00
2022-11-09T03:22:11.914Z,100.00
2022-11-09T03:24:28.928Z,100.00
2022-11-09T03:26:46.068Z,100.00
2022-11-09T03:29:03.311Z,100.00
2022-11-09T03:31:21.615Z,100.00
2022-11-09T03:33:38.820Z,100.00
2022-11-09T03:35:55.777Z,100.00
2022-11-09T03:38:13.704Z,100.00
2022-11-09T03:40:30.594Z,100.00
2022-11-09T03:42:48.876Z,100.00
2022-11-09T03:45:06.207Z,100.00
2022-11-09T03:47:23.438Z,100.00
2022-11-09T03:49:40.768Z,100.00
2022-11-09T03:51:57.842Z,100.00
2022-11-09T03:54:14.765Z,100.00
2022-11-09T03:56:31.841Z,100.00
2022-11-09T03:58:49.120Z,100.00
2022-11-09T04:01:06.142Z,100.00
2022-11-09T04:03:23.258Z,100.00
2022-11-09T04:05:40.644Z,100.00
2022-11-09T04:07:57.981Z,100.00
2022-11-09T04:10:15.102Z,100.00
2022-11-09T04:12:32.125Z,100.00
2022-11-09T04:14:50.195Z,100.00
2022-11-09T04:17:07.259Z,100.00
2022-11-09T04:19:26.586Z,100.00
2022-11-09T04:21:44.991Z,100.00
2022-11-09T04:24:02.077Z,100.00
2022-11-09T04:26:20.192Z,100.00
2022-11-09T04:28:37.135Z,100.00
2022-11-09T04:30:54.459Z,100.00
2022-11-09T04:33:12.582Z,100.00
2022-11-09T04:35:29.663Z,100.00
2022-11-09T04:37:46.979Z,100.00
2022-11-09T04:40:04.011Z,100.00
2022-11-09T04:42:21.511Z,100.00
2022-11-09T04:44:38.771Z,100.00
2022-11-09T04:46:55.974Z,100.00
2022-11-09T04:49:13.299Z,100.00
2022-11-09T04:51:30.234Z,100.00
2022-11-09T04:53:47.609Z,100.00
2022-11-09T04:56:04.851Z,100.00
2022-11-09T04:58:24.957Z,100.00
2022-11-09T05:00:42.247Z,100.00
2022-11-09T05:02:59.522Z,100.00
2022-11-09T05:05:17.797Z,100.00
2022-11-09T05:07:34.796Z,100.00
2022-11-09T05:09:51.990Z,100.00
2022-11-09T05:12:10.008Z,100.00
2022-11-09T05:14:27.008Z,100.00
2022-11-09T05:16:44.151Z,100.00
2022-11-09T05:19:01.124Z,100.00
2022-11-09T05:21:18.115Z,100.00
2022-11-09T05:23:35.156Z,100.00
2022-11-09T05:25:52.097Z,100.00
2022-11-09T05:28:09.791Z,100.00
2022-11-09T05:30:26.890Z,100.00
2022-11-09T05:32:44.163Z,100.00
2022-11-09T05:35:01.166Z,100.00
2022-11-09T05:37:18.425Z,100.00
2022-11-09T05:39:35.675Z,100.00
2022-11-09T05:41:52.687Z,100.00
2022-11-09T05:44:10.090Z,100.00
2022-11-09T05:46:27.068Z,100.00
2022-11-09T05:48:45.288Z,100.00
2022-11-09T05:51:02.300Z,100.00
2022-11-09T05:53:19.533Z,100.00
2022-11-09T05:55:36.879Z,100.00
2022-11-09T05:57:54.881Z,100.00
2022-11-09T06:00:12.160Z,100.00
2022-11-09T06:02:29.100Z,100.00
2022-11-09T06:04:46.116Z,100.00
2022-11-09T06:07:03.452Z,100.00
2022-11-09T06:09:20.786Z,100.00
2022-11-09T06:11:38.023Z,100.00
2022-11-09T06:13:54.926Z,100.00
2022-11-09T06:16:12.578Z,100.00
2022-11-09T06:18:30.447Z,100.00
2022-11-09T06:20:47.639Z,100.00
2022-11-09T06:23:04.929Z,100.00
2022-11-09T06:25:21.984Z,100.00
2022-11-09T06:27:38.974Z,100.00
2022-11-09T06:29:55.874Z,100.00
2022-11-09T06:32:12.906Z,100.00
2022-11-09T06:34:29.904Z,100.00
2022-11-09T06:36:46.892Z,100.00
2022-11-09T06:39:03.891Z,100.00
2022-11-09T06:41:20.904Z,100.00
2022-11-09T06:43:37.878Z,100.00
2022-11-09T06:45:54.886Z,100.00
2022-11-09T06:48:12.852Z,100.00
2022-11-09T06:50:30.061Z,100.00
2022-11-09T06:52:48.077Z,100.00
2022-11-09T06:55:05.069Z,100.00
2022-11-09T06:57:22.067Z,100.00
2022-11-09T06:59:39.074Z,100.00
2022-11-09T07:02:01.074Z,100.00
2022-11-09T07:04:18.469Z,100.00
2022-11-09T07:06:35.447Z,100.00
2022-11-09T07:08:53.378Z,100.00
2022-11-09T07:11:10.388Z,100.00
2022-11-09T07:13:28.597Z,100.00
2022-11-09T07:15:45.565Z,100.00
2022-11-09T07:18:03.699Z,100.00
2022-11-09T07:20:21.904Z,100.00
2022-11-09T07:22:38.852Z,100.00
2022-11-09T07:24:55.747Z,100.00
2022-11-09T07:27:12.748Z,100.00
2022-11-09T07:29:29.949Z,100.00
2022-11-09T07:31:47.937Z,100.00
2022-11-09T07:34:04.905Z,100.00
2022-11-09T07:36:22.019Z,100.00
2022-11-09T07:38:39.299Z,100.00
2022-11-09T07:40:56.273Z,100.00
2022-11-09T07:43:13.586Z,100.00
2022-11-09T07:45:30.614Z,100.00
2022-11-09T07:47:47.604Z,100.00
2022-11-09T07:50:04.692Z,100.00
2022-11-09T07:52:22.064Z,100.00
2022-11-09T07:54:40.204Z,100.00
2022-11-09T07:56:57.587Z,100.00
2022-11-09T07:59:15.603Z,100.00
2022-11-09T08:01:32.622Z,100.00
2022-11-09T08:03:49.925Z,100.00
2022-11-09T08:06:14.244Z,100.00
2022-11-09T08:08:34.539Z,100.00
2022-11-09T08:10:51.500Z,100.00
2022-11-09T08:13:08.808Z,100.00
2022-11-09T08:15:26.028Z,100.00
2022-11-09T08:17:43.536Z,100.00
2022-11-09T08:20:00.935Z,100.00
2022-11-09T08:22:18.251Z,100.00
2022-11-09T08:24:36.142Z,100.00
2022-11-09T08:26:53.008Z,100.00
2022-11-09T08:29:10.132Z,100.00
2022-11-09T08:31:27.507Z,100.00
2022-11-09T08:33:44.518Z,100.00
2022-11-09T08:36:01.535Z,100.00
2022-11-09T08:38:18.969Z,100.00
2022-11-09T08:40:36.500Z,99.35
2022-11-09T08:42:53.453Z,100.00
2022-11-09T08:45:10.476Z,99.93
2022-11-09T08:47:27.418Z,99.56
2022-11-09T08:49:45.627Z,99.54
2022-11-09T08:52:02.845Z,97.42
2022-11-09T08:54:20.106Z,98.69
2022-11-09T08:56:37.133Z,98.41
2022-11-09T08:58:54.193Z,97.75
2022-11-09T09:01:16.727Z,95.63
2022-11-09T09:03:34.349Z,96.83
2022-11-09T09:05:51.602Z,96.96
2022-11-09T09:08:08.423Z,96.25
2022-11-09T09:10:25.460Z,95.56
2022-11-09T09:12:42.491Z,96.02
2022-11-09T09:14:59.436Z,95.38
2022-11-09T09:17:17.734Z,93.16
2022-11-09T09:19:35.803Z,93.87
2022-11-09T09:21:52.862Z,92.34
2022-11-09T09:24:09.794Z,93.63
2022-11-09T09:26:27.585Z,93.80
2022-11-09T09:28:44.614Z,92.23
2022-11-09T09:31:01.885Z,90.86
2022-11-09T09:33:19.127Z,90.83
2022-11-09T09:35:36.390Z,90.76
2022-11-09T09:37:53.651Z,89.45
2022-11-09T09:40:10.532Z,90.01
2022-11-09T09:42:27.534Z,88.68
2022-11-09T09:44:44.399Z,88.54
2022-11-09T09:47:01.371Z,89.44
2022-11-09T09:49:18.284Z,87.16
2022-11-09T09:51:35.314Z,88.76
2022-11-09T09:53:52.288Z,87.93
2022-11-09T09:56:09.523Z,88.37
2022-11-09T09:58:26.511Z,88.15
2022-11-09T10:00:43.466Z,87.65
2022-11-09T10:03:00.679Z,88.15
2022-11-09T10:05:17.719Z,87.16
2022-11-09T10:07:34.668Z,88.08
2022-11-09T10:09:51.705Z,86.41
2022-11-09T10:12:08.688Z,87.23
2022-11-09T10:14:25.974Z,85.88
2022-11-09T10:16:42.917Z,83.38
2022-11-09T10:19:00.905Z,83.28
2022-11-09T10:21:19.163Z,85.17
2022-11-09T10:23:36.059Z,82.59
2022-11-09T10:26:04.493Z,80.95
2022-11-09T10:28:23.576Z,80.16
2022-11-09T10:30:42.628Z,79.81
2022-11-09T10:32:59.593Z,79.89
2022-11-09T10:35:16.530Z,78.13
2022-11-09T10:37:33.896Z,79.28
2022-11-09T10:39:50.802Z,78.15
2022-11-09T10:42:08.059Z,78.98
2022-11-09T10:44:25.141Z,78.62
2022-11-09T10:46:42.333Z,77.66
2022-11-09T10:48:59.333Z,77.33
2022-11-09T10:51:16.372Z,77.37
2022-11-09T10:53:33.813Z,76.61
2022-11-09T10:55:50.864Z,75.99
2022-11-09T10:58:07.862Z,76.81
2022-11-09T11:00:26.118Z,76.18
2022-11-09T11:02:43.394Z,76.19
2022-11-09T11:05:00.427Z,76.01
2022-11-09T11:07:20.971Z,76.72
2022-11-09T11:09:38.764Z,75.74
2022-11-09T11:11:56.021Z,75.57
2022-11-09T11:14:15.908Z,74.26
2022-11-09T11:16:35.591Z,74.60
2022-11-09T11:18:52.630Z,73.97
2022-11-09T11:21:11.209Z,74.28
2022-11-09T11:23:30.875Z,72.96
2022-11-09T11:25:47.845Z,74.08
2022-11-09T11:28:04.810Z,73.71
2022-11-09T11:30:22.956Z,75.24
2022-11-09T11:32:42.101Z,75.59
2022-11-09T11:35:01.985Z,73.98
2022-11-09T11:37:20.250Z,76.17
2022-11-09T11:39:37.577Z,75.71
2022-11-09T11:41:54.577Z,76.43
2022-11-09T11:44:11.507Z,75.31
2022-11-09T11:46:28.576Z,75.86
2022-11-09T11:48:45.828Z,73.88
2022-11-09T11:51:02.853Z,75.85
2022-11-09T11:53:20.287Z,76.16
2022-11-09T11:55:37.727Z,76.31
2022-11-09T11:57:54.806Z,76.28
2022-11-09T12:00:11.806Z,76.51
2022-11-09T12:02:29.100Z,76.53
2022-11-09T12:04:46.228Z,76.88
2022-11-09T12:07:03.266Z,76.81
2022-11-09T12:09:20.552Z,78.07
2022-11-09T12:11:37.608Z,78.49
2022-11-09T12:13:54.534Z,78.15
2022-11-09T12:16:12.711Z,78.29
2022-11-09T12:18:29.669Z,78.77
2022-11-09T12:20:46.886Z,78.69
2022-11-09T12:23:03.962Z,78.37
2022-11-09T12:25:20.965Z,80.35
2022-11-09T12:27:37.894Z,78.88
2022-11-09T12:29:54.926Z,79.98
2022-11-09T12:32:13.464Z,81.19
2022-11-09T12:34:30.418Z,81.12
2022-11-09T12:36:48.236Z,80.89
2022-11-09T12:39:05.492Z,82.06
2022-11-09T12:41:22.534Z,82.01
2022-11-09T12:43:39.445Z,83.46
2022-11-09T12:45:56.783Z,82.16
2022-11-09T12:48:13.748Z,82.67
2022-11-09T12:50:31.072Z,82.91
2022-11-09T12:52:48.281Z,83.44
2022-11-09T12:55:05.468Z,86.15
2022-11-09T12:57:22.710Z,86.73
2022-11-09T12:59:39.739Z,84.76
2022-11-09T13:01:56.704Z,86.99
2022-11-09T13:04:16.649Z,86.55
2022-11-09T13:06:33.732Z,86.41
2022-11-09T13:08:51.059Z,87.53
2022-11-09T13:11:07.956Z,86.56
2022-11-09T13:13:25.075Z,88.79
2022-11-09T13:15:42.146Z,90.14
2022-11-09T13:17:59.182Z,90.11
2022-11-09T13:20:40.599Z,90.76
2022-11-09T13:22:53.075Z,89.29
2022-11-09T13:25:10.004Z,90.24
2022-11-09T13:27:27.139Z,89.68
2022-11-09T13:29:44.091Z,89.74
2022-11-09T13:32:02.053Z,91.38
2022-11-09T13:34:19.048Z,91.39
2022-11-09T13:36:35.982Z,90.79
2022-11-09T13:38:53.043Z,90.58
2022-11-09T13:41:09.999Z,90.29
2022-11-09T13:43:26.991Z,89.87
2022-11-09T13:45:45.225Z,89.09
2022-11-09T13:48:02.163Z,89.62
2022-11-09T13:50:19.161Z,87.15
2022-11-09T13:52:36.142Z,87.91
2022-11-09T13:54:53.011Z,86.06
2022-11-09T13:57:10.706Z,85.43
2022-11-09T13:59:27.892Z,86.18
2022-11-09T14:01:45.943Z,86.75
2022-11-09T14:04:03.252Z,86.52
2022-11-09T14:06:20.521Z,88.54
2022-11-09T14:08:40.663Z,87.97
2022-11-09T14:10:58.152Z,88.54
2022-11-09T14:13:15.177Z,89.93
2022-11-09T14:15:32.203Z,89.81
2022-11-09T14:17:50.135Z,91.26
2022-11-09T14:20:11.710Z,90.09
2022-11-09T14:22:29.140Z,88.98
2022-11-09T14:24:46.078Z,89.63
2022-11-09T14:27:03.012Z,90.96
2022-11-09T14:29:20.334Z,91.03
2022-11-09T14:31:40.322Z,91.86
2022-11-09T14:34:01.062Z,90.92
2022-11-09T14:36:18.078Z,90.51
2022-11-09T14:38:35.322Z,92.93
2022-11-09T14:40:52.447Z,91.33
2022-11-09T14:43:09.769Z,91.74
2022-11-09T14:45:27.047Z,93.16
2022-11-09T14:47:45.141Z,93.53
2022-11-09T14:50:02.112Z,90.06
2022-11-09T14:52:19.060Z,91.55
2022-11-09T14:54:35.992Z,91.33
2022-11-09T14:56:53.971Z,90.42
2022-11-09T14:59:10.855Z,90.16
2022-11-09T15:01:27.854Z,91.48
2022-11-09T15:03:45.106Z,90.04
2022-11-09T15:06:01.982Z,90.82
2022-11-09T15:08:19.370Z,90.10
2022-11-09T15:10:36.577Z,90.32
2022-11-09T15:12:53.626Z,90.08
2022-11-09T15:15:10.647Z,89.80
2022-11-09T15:17:27.582Z,89.30
2022-11-09T15:19:45.788Z,90.83
2022-11-09T15:22:02.805Z,89.51
2022-11-09T15:24:19.752Z,90.19
2022-11-09T15:26:36.675Z,90.85
2022-11-09T15:28:53.621Z,90.91
2022-11-09T15:31:11.139Z,90.61
2022-11-09T15:33:28.468Z,91.67
2022-11-09T15:35:45.877Z,91.32
2022-11-09T15:38:03.129Z,92.70
2022-11-09T15:40:20.438Z,92.03
2022-11-09T15:42:40.041Z,92.60
2022-11-09T15:45:00.660Z,93.13
2022-11-09T15:47:17.630Z,92.67
2022-11-09T15:49:35.554Z,93.13
2022-11-09T15:51:52.803Z,92.68
2022-11-09T15:54:10.103Z,93.81
2022-11-09T15:56:27.515Z,93.21
2022-11-09T15:58:44.485Z,93.28
2022-11-09T16:01:01.861Z,93.16
2022-11-09T16:03:19.116Z,93.11
2022-11-09T16:05:36.160Z,93.81
2022-11-09T16:07:53.096Z,93.48
2022-11-09T16:10:11.040Z,93.00
2022-11-09T16:12:28.030Z,93.25
2022-11-09T16:14:44.966Z,94.16
2022-11-09T16:17:02.003Z,94.30
2022-11-09T16:19:19.063Z,93.90
2022-11-09T16:21:36.076Z,93.82
2022-11-09T16:23:58.102Z,93.74
2022-11-09T16:26:15.643Z,93.84
2022-11-09T16:28:32.628Z,93.47
2022-11-09T16:30:50.884Z,94.52
2022-11-09T16:33:07.955Z,94.70
2022-11-09T16:35:27.561Z,94.25
2022-11-09T16:37:45.474Z,94.69
2022-11-09T16:40:02.534Z,94.42
2022-11-09T16:42:20.408Z,94.29
2022-11-09T16:44:37.765Z,94.54
2022-11-09T16:46:55.076Z,94.45
2022-11-09T16:49:13.364Z,94.40
2022-11-09T16:51:30.415Z,94.69
2022-11-09T16:53:47.429Z,94.72
2022-11-09T16:56:04.783Z,94.63
2022-11-09T16:58:23.470Z,94.68
2022-11-09T17:01:04.362Z,94.56
2022-11-09T17:03:17.451Z,94.56
2022-11-09T17:05:36.047Z,94.69
2022-11-09T17:07:53.373Z,94.56
2022-11-09T17:10:10.691Z,95.08
2022-11-09T17:12:27.656Z,94.96
2022-11-09T17:14:45.016Z,95.12
2022-11-09T17:17:02.639Z,94.91
2022-11-09T17:19:19.651Z,95.05
2022-11-09T17:21:36.953Z,94.96
2022-11-09T17:23:54.216Z,95.20
2022-11-09T17:26:12.455Z,95.05
2022-11-09T17:28:29.570Z,95.44
2022-11-09T17:30:46.868Z,95.00
2022-11-09T17:33:04.067Z,95.38
2022-11-09T17:35:21.331Z,95.45
2022-11-09T17:37:38.289Z,95.36
2022-11-09T17:39:55.575Z,95.18
2022-11-09T17:42:12.932Z,95.38
2022-11-09T17:44:30.881Z,95.22
2022-11-09T17:46:48.215Z,95.66
2022-11-09T17:49:09.727Z,95.20
2022-11-09T17:51:27.365Z,95.15
2022-11-09T17:53:44.762Z,95.03
2022-11-09T17:56:01.663Z,94.98
2022-11-09T17:58:20.200Z,95.17
2022-11-09T18:00:37.566Z,94.45
2022-11-09T18:02:55.674Z,94.75
2022-11-09T18:05:13.973Z,94.16
2022-11-09T18:07:31.185Z,94.65
2022-11-09T18:09:48.162Z,94.26
2022-11-09T18:12:05.425Z,94.61
2022-11-09T18:14:22.420Z,94.46
2022-11-09T18:16:39.364Z,94.63
2022-11-09T18:18:57.417Z,94.55
2022-11-09T18:21:14.681Z,94.37
2022-11-09T18:23:32.746Z,94.72
2022-11-09T18:25:49.677Z,94.94
2022-11-09T18:28:07.543Z,94.42
2022-11-09T18:30:24.476Z,94.54
2022-11-09T18:32:41.418Z,94.29
2022-11-09T18:34:58.764Z,93.88
2022-11-09T18:37:15.730Z,94.61
2022-11-09T18:39:32.989Z,93.87
2022-11-09T18:41:50.202Z,94.66
2022-11-09T18:44:07.192Z,94.33
2022-11-09T18:46:24.129Z,93.97
2022-11-09T18:48:41.360Z,94.18
2022-11-09T18:50:58.465Z,94.12
2022-11-09T18:53:15.790Z,95.20
2022-11-09T18:55:33.053Z,94.33
2022-11-09T18:57:51.341Z,94.91
2022-11-09T19:00:08.347Z,94.98
2022-11-09T19:02:25.408Z,95.83
2022-11-09T19:04:42.677Z,94.74
2022-11-09T19:07:00.048Z,95.05
2022-11-09T19:09:17.302Z,94.80
2022-11-09T19:11:34.651Z,95.95
2022-11-09T19:13:51.573Z,94.41
2022-11-09T19:16:09.614Z,94.47
2022-11-09T19:18:27.035Z,95.90
2022-11-09T19:20:44.004Z,95.16
2022-11-09T19:23:01.241Z,95.58
2022-11-09T19:25:18.507Z,94.45
2022-11-09T19:27:36.372Z,94.65
2022-11-09T19:29:53.347Z,95.97
2022-11-09T19:32:10.515Z,94.91
2022-11-09T19:34:27.642Z,94.59
2022-11-09T19:36:44.722Z,94.36
2022-11-09T19:39:01.787Z,94.40
2022-11-09T19:41:19.077Z,95.65
2022-11-09T19:43:36.356Z,95.56
2022-11-09T19:45:53.290Z,95.64
2022-11-09T19:48:10.555Z,94.17
2022-11-09T19:50:27.520Z,95.12
2022-11-09T19:52:44.807Z,95.49
2022-11-09T19:55:02.108Z,95.60
2022-11-09T19:57:19.319Z,95.31
2022-11-09T19:59:36.582Z,94.90
2022-11-09T20:01:53.864Z,95.27
2022-11-09T20:04:10.810Z,95.16
2022-11-09T20:06:27.748Z,94.75
2022-11-09T20:08:44.809Z,94.20
2022-11-09T20:11:02.559Z,94.82
2022-11-09T20:13:19.514Z,94.72
2022-11-09T20:15:36.784Z,94.68
2022-11-09T20:17:53.790Z,94.50
2022-11-09T20:20:10.902Z,94.64
2022-11-09T20:22:28.190Z,94.18
2022-11-09T20:24:45.203Z,94.71
2022-11-09T20:27:02.540Z,94.85
2022-11-09T20:29:19.578Z,94.87
2022-11-09T20:31:36.531Z,93.88
2022-11-09T20:33:53.868Z,93.65
2022-11-09T20:36:10.904Z,93.18
2022-11-09T20:38:29.252Z,93.60
2022-11-09T20:40:46.504Z,94.55
2022-11-09T20:43:04.423Z,93.72
2022-11-09T20:45:21.373Z,94.37
2022-11-09T20:48:03.312Z,93.70
2022-11-09T20:50:15.616Z,94.23
2022-11-09T20:52:32.864Z,94.28
2022-11-09T20:54:50.920Z,94.24
2022-11-09T20:57:07.950Z,93.84
2022-11-09T20:59:24.888Z,94.37
2022-11-09T21:01:42.236Z,93.80
2022-11-09T21:03:59.498Z,93.77
2022-11-09T21:06:16.485Z,93.96
2022-11-09T21:08:33.712Z,94.29
2022-11-09T21:10:51.857Z,93.95
2022-11-09T21:13:09.081Z,94.52
2022-11-09T21:15:26.442Z,93.47
2022-11-09T21:17:43.401Z,93.10
2022-11-09T21:20:00.423Z,93.85
2022-11-09T21:22:17.733Z,94.04
2022-11-09T21:24:34.769Z,93.95
2022-11-09T21:26:53.028Z,93.57
2022-11-09T21:29:10.054Z,94.68
2022-11-09T21:31:28.007Z,93.95
2022-11-09T21:33:46.020Z,94.09
2022-11-09T21:36:03.210Z,93.87
2022-11-09T21:38:21.699Z,94.33
2022-11-09T21:40:40.173Z,93.24
2022-11-09T21:42:57.450Z,93.63
2022-11-09T21:45:14.710Z,93.19
2022-11-09T21:47:31.994Z,93.32
2022-11-09T21:49:49.007Z,93.85
2022-11-09T21:52:07.180Z,92.83
2022-11-09T21:54:25.488Z,93.75
2022-11-09T21:56:42.407Z,93.22
2022-11-09T21:58:59.690Z,93.16
2022-11-09T22:01:16.644Z,93.58
2022-11-09T22:03:33.838Z,93.74
2022-11-09T22:05:51.790Z,93.96
2022-11-09T22:08:08.779Z,94.35
2022-11-09T22:10:26.121Z,93.66
2022-11-09T22:12:43.087Z,93.71
2022-11-09T22:15:00.498Z,93.41
2022-11-09T22:17:17.533Z,93.58
2022-11-09T22:19:34.574Z,93.69
2022-11-09T22:21:51.512Z,93.64
2022-11-09T22:24:08.547Z,94.17
2022-11-09T22:26:26.800Z,93.72
2022-11-09T22:28:43.829Z,93.27
2022-11-09T22:31:00.876Z,94.01
2022-11-09T22:33:21.764Z,93.83
2022-11-09T22:35:41.651Z,93.56
2022-11-09T22:37:59.686Z,93.50
2022-11-09T22:40:16.739Z,93.81
2022-11-09T22:42:34.480Z,94.08
2022-11-09T22:44:51.528Z,93.52
2022-11-09T22:47:08.749Z,94.19
2022-11-09T22:49:26.481Z,94.08
2022-11-09T22:51:43.414Z,93.72
2022-11-09T22:54:00.431Z,93.76
2022-11-09T22:56:17.486Z,94.19
2022-11-09T22:58:34.359Z,94.18
2022-11-09T23:00:51.376Z,94.66
2022-11-09T23:03:08.239Z,94.26
2022-11-09T23:05:25.455Z,94.32
2022-11-09T23:07:42.650Z,94.35
2022-11-09T23:10:00.998Z,93.93
2022-11-09T23:12:18.126Z,93.72
2022-11-09T23:14:35.417Z,93.62
2022-11-09T23:16:52.511Z,93.42
2022-11-09T23:19:09.407Z,93.41
2022-11-09T23:21:26.732Z,93.52
2022-11-09T23:23:43.748Z,93.38
2022-11-09T23:26:00.717Z,93.25
2022-11-09T23:28:18.017Z,93.18
2022-11-09T23:30:35.475Z,93.51
2022-11-09T23:32:53.846Z,93.65
2022-11-09T23:35:11.243Z,93.63
2022-11-09T23:37:28.181Z,93.58
2022-11-09T23:39:45.297Z,93.20
2022-11-09T23:42:03.557Z,93.34
2022-11-09T23:44:20.486Z,93.35
2022-11-09T23:46:37.836Z,93.17
2022-11-09T23:48:54.894Z,93.38
2022-11-09T23:51:11.773Z,93.21
2022-11-09T23:53:29.265Z,92.96
2022-11-09T23:55:46.502Z,92.61
2022-11-09T23:58:03.824Z,93.11
